首页
METAR-TAF:

METAR-TAF

机场 :

雅典, 喬治亞, 美国

纬度: 33-57-03N, 经度: 083-19-41W, 海拔: 246米

当前天气观测

该预报发布于1小时和1分钟前的07:51 UTC
静风
温度 13°C
湿度 88%
气压 1019 hPa
能見度: 16.1公里
天空无云

METAR: KAHN 230751Z AUTO 00000KT 10SM CLR 13/11 A3010 RMK AO2 SLP188 T01280106

时间: 04:52 (08:52 UTC)

预报

该预报发布于3小时和32分钟前的05:20 UTC
预报有效从23日的 06点(UTC)到 24日的 06点(UTC)
风速3节,风向多变
能見度: 10公里
天空无云
从 23日的 1500点(UTC)
风速7节,风向西转西南
能見度: 10公里
散云层高于25000英尺
从 24日的 0000点(UTC)
风速3节,风向西转西南
能見度: 10公里
多云层高于25000英尺

TAF: KAHN 230520Z 2306/2406 VRB03KT P6SM SKC FM231500 24007KT P6SM SCT250 FM240000 24003KT P6SM BKN250

超过4000个机场的气象观测和天气预报(METAR&TAF报告)。

可查询的气象台以黄色和红色小点在地图上表示。

将鼠标移到小点上方,可查看气象台名称。

然后点击查看天气观测和预报。

如需切换地图:点击带黑十字的绿色按钮放大地图;点击带横线的绿色按钮缩小地图;或者点击绿色箭头查看邻近地区的地图。


METAR-TAF: